Time;durP1;ratioP1;P1;durP2;ratioP2;P2;SDS_P1;SDS_P2;PMS_P1;PMS_P2;Temp;Humidity;BMP_temperature;BMP_pressure;BME280_temperature;BME280_humidity;BME280_pressure;Samples;Min_cycle;Max_cycle;Signal;HPM_P1;HPM_P2
2022/06/12 00:01:07;;;;;;;7.85;2.75;;;;;;;;;;4968588;28;20081;-77
2022/06/12 00:03:33;;;;;;;9.23;2.97;;;;;;;;;;4966510;28;20055;-76
2022/06/12 00:06:00;;;;;;;9.90;2.97;;;;;;;;;;4961768;28;20774;-72
2022/06/12 00:08:28;;;;;;;9.13;2.53;;;;;;;;;;4964531;28;20137;-75
2022/06/12 00:10:56;;;;;;;9.55;2.90;;;;;;;;;;4967337;28;20128;-76
2022/06/12 00:13:29;;;;;;;8.13;2.58;;;;;;;;;;4966799;28;20068;-77
2022/06/12 00:15:56;;;;;;;10.73;3.20;;;;;;;;;;4963063;28;20046;-73
2022/06/12 00:18:23;;;;;;;8.32;3.13;;;;;;;;;;4966564;28;20061;-77
2022/06/12 00:21:10;;;;;;;8.02;2.70;;;;;;;;;;4961860;28;20062;-78
2022/06/12 00:23:44;;;;;;;14.38;2.40;;;;;;;;;;4961565;28;20089;-82
2022/06/12 00:26:10;;;;;;;;;;;;;;;;;;4960904;28;20150;-77
2022/06/12 00:28:36;;;;;;;6.93;2.88;;;;;;;;;;4962424;28;19937;-73
2022/06/12 00:31:01;;;;;;;9.48;2.25;;;;;;;;;;4962177;28;20056;-74
2022/06/12 00:33:27;;;;;;;7.57;2.78;;;;;;;;;;4962586;28;20162;-73
2022/06/12 00:35:53;;;;;;;9.52;2.60;;;;;;;;;;4954291;28;20077;-76
2022/06/12 00:38:19;;;;;;;9.27;2.53;;;;;;;;;;4963697;28;20488;-81
2022/06/12 00:40:45;;;;;;;9.57;2.65;;;;;;;;;;4961286;28;20059;-78
2022/06/12 00:43:13;;;;;;;11.07;2.60;;;;;;;;;;4962962;28;20050;-82
2022/06/12 00:45:53;;;;;;;5.45;2.67;;;;;;;;;;4958037;28;20051;-72
2022/06/12 00:48:23;;;;;;;8.80;2.60;;;;;;;;;;4963236;28;20070;-79
2022/06/12 00:51:08;;;;;;;10.10;2.72;;;;;;;;;;4962609;28;20051;-75
2022/06/12 00:53:43;;;;;;;9.38;2.55;;;;;;;;;;4961760;28;20059;-75
2022/06/12 00:56:12;;;;;;;7.03;2.33;;;;;;;;;;4958863;28;20126;-72
2022/06/12 00:58:44;;;;;;;9.05;2.70;;;;;;;;;;4964343;28;20065;-73
2022/06/12 01:01:18;;;;;;;8.07;2.67;;;;;;;;;;4966139;28;20046;-75
2022/06/12 01:06:35;;;;;;;6.00;2.20;;;;;;;;;;4963252;28;20054;-73
2022/06/12 01:09:07;;;;;;;5.50;2.70;;;;;;;;;;4964726;28;20034;-72
2022/06/12 01:11:35;;;;;;;9.45;2.88;;;;;;;;;;4965043;28;20082;-73
2022/06/12 01:14:02;;;;;;;7.40;2.33;;;;;;;;;;4966177;28;20396;-79
2022/06/12 01:16:29;;;;;;;6.30;2.80;;;;;;;;;;4965890;28;20050;-73
2022/06/12 01:18:56;;;;;;;5.97;2.35;;;;;;;;;;4965246;28;20046;-82
2022/06/12 01:21:42;;;;;;;9.00;2.80;;;;;;;;;;4967337;28;20101;-74
2022/06/12 01:24:29;;;;;;;7.45;2.70;;;;;;;;;;4964969;28;20509;-80
2022/06/12 01:27:22;;;;;;;11.88;3.03;;;;;;;;;;4966897;28;20066;-74
2022/06/12 01:30:01;;;;;;;6.57;2.20;;;;;;;;;;4967168;28;20050;-76
2022/06/12 01:32:30;;;;;;;8.40;2.35;;;;;;;;;;4965441;28;20093;-73
2022/06/12 01:35:16;;;;;;;6.28;2.30;;;;;;;;;;4963798;28;20043;-75
2022/06/12 01:38:04;;;;;;;9.02;2.40;;;;;;;;;;4966247;28;20043;-74
2022/06/12 01:40:50;;;;;;;5.40;2.85;;;;;;;;;;4968450;28;20047;-75
2022/06/12 01:43:22;;;;;;;8.70;2.40;;;;;;;;;;4966799;28;20601;-74
2022/06/12 01:45:53;;;;;;;7.57;2.60;;;;;;;;;;4962267;28;20062;-83
2022/06/12 01:48:37;;;;;;;5.97;2.45;;;;;;;;;;4968174;28;20066;-75
2022/06/12 01:51:17;;;;;;;;;;;;;;;;;;4967284;28;20054;-73
2022/06/12 01:54:03;;;;;;;5.68;1.80;;;;;;;;;;4966767;28;19934;-73
2022/06/12 01:56:42;;;;;;;9.07;2.20;;;;;;;;;;4960780;28;20493;-72
2022/06/12 01:59:13;;;;;;;4.93;1.92;;;;;;;;;;4967320;28;20051;-73
2022/06/12 02:01:55;;;;;;;5.97;2.03;;;;;;;;;;4964461;28;20150;-70
2022/06/12 02:04:38;;;;;;;4.40;1.90;;;;;;;;;;4966291;28;20143;-82
2022/06/12 02:07:17;;;;;;;4.93;1.75;;;;;;;;;;4966286;28;20063;-73
2022/06/12 02:10:08;;;;;;;8.40;2.20;;;;;;;;;;4966423;28;20043;-72
2022/06/12 02:15:32;;;;;;;6.75;1.92;;;;;;;;;;4962285;28;20053;-77
2022/06/12 02:18:06;;;;;;;5.13;1.88;;;;;;;;;;4965573;28;20113;-74
2022/06/12 02:20:37;;;;;;;5.72;1.60;;;;;;;;;;4964874;28;20051;-81
2022/06/12 02:23:17;;;;;;;5.35;1.85;;;;;;;;;;4964783;28;20063;-73
2022/06/12 02:25:47;;;;;;;6.47;2.08;;;;;;;;;;4964374;28;20059;-77
2022/06/12 02:28:18;;;;;;;7.45;2.28;;;;;;;;;;4966293;28;20098;-73
2022/06/12 02:30:48;;;;;;;6.05;2.25;;;;;;;;;;4964128;28;20116;-76
2022/06/12 02:33:24;;;;;;;8.68;2.25;;;;;;;;;;4966715;28;20065;-74
2022/06/12 02:35:55;;;;;;;9.82;2.47;;;;;;;;;;4963620;28;20051;-82
2022/06/12 02:38:36;;;;;;;9.73;2.20;;;;;;;;;;4967309;28;20127;-80
2022/06/12 02:41:07;;;;;;;9.98;1.90;;;;;;;;;;4968074;28;20062;-73
2022/06/12 02:43:36;;;;;;;5.25;2.20;;;;;;;;;;4966224;28;20046;-75
2022/06/12 02:46:10;;;;;;;7.65;2.22;;;;;;;;;;4958975;28;20044;-79
2022/06/12 02:48:36;;;;;;;10.00;2.20;;;;;;;;;;4965682;28;20062;-73
2022/06/12 02:51:18;;;;;;;6.78;2.15;;;;;;;;;;4966004;28;20102;-74
2022/06/12 02:54:04;;;;;;;5.68;1.95;;;;;;;;;;4963826;28;20066;-77
2022/06/12 02:56:59;;;;;;;6.65;2.45;;;;;;;;;;4965863;28;20051;-72
2022/06/12 02:59:51;;;;;;;9.30;2.08;;;;;;;;;;4964287;28;20043;-77
2022/06/12 03:02:39;;;;;;;4.38;1.83;;;;;;;;;;4964115;28;21622;-73
2022/06/12 03:05:22;;;;;;;6.10;1.92;;;;;;;;;;4961741;28;20055;-76
2022/06/12 03:07:55;;;;;;;6.30;2.00;;;;;;;;;;4966621;28;20457;-75
2022/06/12 03:10:26;;;;;;;5.53;2.00;;;;;;;;;;4963550;28;20483;-72
2022/06/12 03:12:52;;;;;;;7.50;2.17;;;;;;;;;;4961828;28;20508;-74
2022/06/12 03:15:50;;;;;;;7.32;2.00;;;;;;;;;;4959697;28;20054;-82
2022/06/12 03:18:22;;;;;;;5.45;2.00;;;;;;;;;;4965419;28;20061;-80
2022/06/12 03:21:29;;;;;;;4.95;2.25;;;;;;;;;;4962244;28;20055;-75
2022/06/12 03:24:16;;;;;;;6.72;1.98;;;;;;;;;;4961278;28;20484;-80
2022/06/12 03:26:59;;;;;;;8.45;2.17;;;;;;;;;;4965448;28;20055;-74
2022/06/12 03:29:56;;;;;;;4.13;1.88;;;;;;;;;;4963794;28;20369;-75
2022/06/12 03:33:07;;;;;;;6.57;2.08;;;;;;;;;;4963081;28;20039;-73
2022/06/12 03:35:57;;;;;;;6.00;2.03;;;;;;;;;;4959972;28;20098;-74
2022/06/12 03:38:43;;;;;;;6.95;2.13;;;;;;;;;;4963721;28;20050;-81
2022/06/12 03:41:52;;;;;;;5.85;1.98;;;;;;;;;;4962058;28;20130;-77
2022/06/12 03:44:34;;;;;;;7.05;2.35;;;;;;;;;;4961328;28;20355;-78
2022/06/12 03:47:25;;;;;;;7.10;1.98;;;;;;;;;;4962828;28;20493;-71
2022/06/12 03:49:59;;;;;;;4.03;1.92;;;;;;;;;;4961725;28;20051;-74
2022/06/12 03:52:25;;;;;;;;;;;;;;;;;;4961618;28;20057;-78
2022/06/12 03:55:12;;;;;;;5.60;1.90;;;;;;;;;;4958718;28;19922;-73
2022/06/12 03:57:51;;;;;;;5.35;2.03;;;;;;;;;;4960877;28;20512;-75
2022/06/12 04:00:40;;;;;;;7.72;1.85;;;;;;;;;;4964054;28;20253;-74
2022/06/12 04:03:14;;;;;;;5.43;2.13;;;;;;;;;;4963662;28;20078;-72
2022/06/12 04:05:51;;;;;;;;;;;;;;;;;;4959691;28;20193;-75
2022/06/12 04:08:22;;;;;;;8.25;2.13;;;;;;;;;;4964303;28;19960;-80
2022/06/12 04:10:49;;;;;;;8.32;2.30;;;;;;;;;;4961424;28;20554;-74
2022/06/12 04:13:18;;;;;;;8.00;2.83;;;;;;;;;;4963231;28;20043;-75
2022/06/12 04:15:47;;;;;;;14.18;4.65;;;;;;;;;;4958920;28;20070;-73
2022/06/12 04:18:14;;;;;;;10.18;3.70;;;;;;;;;;4963002;28;20147;-78
2022/06/12 04:21:02;;;;;;;15.13;3.65;;;;;;;;;;4962199;28;20158;-71
2022/06/12 04:23:41;;;;;;;7.60;2.95;;;;;;;;;;4961621;28;20302;-77
2022/06/12 04:26:16;;;;;;;10.18;2.33;;;;;;;;;;4957458;28;20074;-73
2022/06/12 04:28:45;;;;;;;5.90;2.15;;;;;;;;;;4961785;28;20157;-78
2022/06/12 04:31:18;;;;;;;7.10;2.10;;;;;;;;;;4961280;28;20147;-73
2022/06/12 04:33:44;;;;;;;8.02;1.98;;;;;;;;;;4962820;28;20054;-77
2022/06/12 04:36:11;;;;;;;7.03;2.08;;;;;;;;;;4957370;28;20050;-72
2022/06/12 04:38:37;;;;;;;4.38;1.92;;;;;;;;;;4963904;28;20102;-76
2022/06/12 04:41:03;;;;;;;7.97;2.08;;;;;;;;;;4960076;28;20128;-74
2022/06/12 04:43:29;;;;;;;9.40;1.83;;;;;;;;;;4961087;28;20134;-73
2022/06/12 04:45:56;;;;;;;7.18;2.20;;;;;;;;;;4956338;28;20051;-74
2022/06/12 04:48:43;;;;;;;6.18;2.00;;;;;;;;;;4965231;28;20121;-82
2022/06/12 04:51:11;;;;;;;7.53;1.90;;;;;;;;;;4966191;28;20043;-72
2022/06/12 04:53:39;;;;;;;5.63;2.13;;;;;;;;;;4966371;28;20528;-72
2022/06/12 04:56:06;;;;;;;5.55;2.00;;;;;;;;;;4963655;28;20091;-73
2022/06/12 04:58:32;;;;;;;4.75;2.10;;;;;;;;;;4966146;28;20090;-74
2022/06/12 05:00:58;;;;;;;8.65;2.35;;;;;;;;;;4964489;28;20424;-76
2022/06/12 05:03:24;;;;;;;5.60;2.08;;;;;;;;;;4967904;28;20047;-77
2022/06/12 05:05:50;;;;;;;9.20;2.65;;;;;;;;;;4962772;28;20059;-79
2022/06/12 05:08:18;;;;;;;6.70;2.20;;;;;;;;;;4969808;28;20130;-77
2022/06/12 05:10:45;;;;;;;8.27;2.50;;;;;;;;;;4962664;28;20149;-74
2022/06/12 05:13:11;;;;;;;8.93;2.50;;;;;;;;;;4962591;28;20889;-74
2022/06/12 05:15:38;;;;;;;8.68;2.70;;;;;;;;;;4956175;28;20121;-75
2022/06/12 05:18:06;;;;;;;8.40;2.47;;;;;;;;;;4961982;28;20055;-75
2022/06/12 05:20:34;;;;;;;6.43;2.28;;;;;;;;;;4960212;28;20055;-79
2022/06/12 05:23:01;;;;;;;7.47;2.38;;;;;;;;;;4962597;28;20050;-75
2022/06/12 05:25:27;;;;;;;6.05;2.00;;;;;;;;;;4958523;28;20788;-80
2022/06/12 05:27:53;;;;;;;7.35;2.15;;;;;;;;;;4964488;28;20047;-77
2022/06/12 05:30:23;;;;;;;6.40;2.20;;;;;;;;;;4962080;28;20065;-78
2022/06/12 05:32:50;;;;;;;7.45;2.20;;;;;;;;;;4960457;28;20055;-81
2022/06/12 05:35:18;;;;;;;6.50;2.00;;;;;;;;;;4958711;28;20062;-76
2022/06/12 05:37:45;;;;;;;8.27;2.20;;;;;;;;;;4962044;28;20214;-78
2022/06/12 05:40:16;;;;;;;8.15;2.20;;;;;;;;;;4962405;28;20066;-74
2022/06/12 05:42:42;;;;;;;14.05;1.88;;;;;;;;;;4962470;28;20094;-74
2022/06/12 05:45:20;;;;;;;5.72;1.67;;;;;;;;;;4957149;28;20101;-74
2022/06/12 05:47:50;;;;;;;11.40;2.35;;;;;;;;;;4964499;28;20578;-79
2022/06/12 05:50:18;;;;;;;9.43;2.15;;;;;;;;;;4964110;28;20614;-76
2022/06/12 05:52:44;;;;;;;8.18;2.08;;;;;;;;;;4960891;28;20150;-72
2022/06/12 05:55:11;;;;;;;4.93;1.88;;;;;;;;;;4956152;28;20051;-78
2022/06/12 05:57:38;;;;;;;4.75;2.10;;;;;;;;;;4962057;28;20058;-72
2022/06/12 06:00:06;;;;;;;8.90;1.90;;;;;;;;;;4960737;28;20373;-80
2022/06/12 06:02:34;;;;;;;6.18;2.00;;;;;;;;;;4960165;28;20051;-74
2022/06/12 06:05:01;;;;;;;5.40;1.88;;;;;;;;;;4958897;28;20055;-75
2022/06/12 06:07:27;;;;;;;6.28;2.10;;;;;;;;;;4964272;28;20101;-80
2022/06/12 06:09:53;;;;;;;6.82;2.22;;;;;;;;;;4960612;28;20047;-79
2022/06/12 06:12:19;;;;;;;4.65;1.70;;;;;;;;;;4963165;28;20548;-80
2022/06/12 06:14:44;;;;;;;6.90;2.10;;;;;;;;;;4957424;28;20154;-81
2022/06/12 06:17:10;;;;;;;4.35;1.80;;;;;;;;;;4962873;28;20423;-74
2022/06/12 06:19:36;;;;;;;8.60;2.05;;;;;;;;;;4964044;28;20066;-76
2022/06/12 06:22:02;;;;;;;7.57;2.50;;;;;;;;;;4958901;28;20051;-75
2022/06/12 06:24:28;;;;;;;4.55;2.00;;;;;;;;;;4954450;28;20062;-81
2022/06/12 06:26:54;;;;;;;6.72;2.05;;;;;;;;;;4963431;28;20484;-78
2022/06/12 06:29:20;;;;;;;5.97;1.75;;;;;;;;;;4957471;28;20767;-76
2022/06/12 06:31:46;;;;;;;4.68;1.80;;;;;;;;;;4965081;28;20050;-76
2022/06/12 06:34:12;;;;;;;6.90;2.00;;;;;;;;;;4959641;28;20113;-76
2022/06/12 06:36:37;;;;;;;5.65;1.98;;;;;;;;;;4960576;28;20046;-80
2022/06/12 06:39:03;;;;;;;6.28;1.80;;;;;;;;;;4959532;28;22336;-81
2022/06/12 06:41:29;;;;;;;6.32;1.85;;;;;;;;;;4960635;28;20055;-79
2022/06/12 06:46:41;;;;;;;11.73;2.33;;;;;;;;;;4958315;28;20054;-77
2022/06/12 06:49:07;;;;;;;7.47;2.13;;;;;;;;;;4962065;28;20046;-81
2022/06/12 06:51:33;;;;;;;8.52;2.38;;;;;;;;;;4964201;28;20110;-75
2022/06/12 06:53:59;;;;;;;6.50;2.00;;;;;;;;;;4958122;28;20151;-88
2022/06/12 06:56:25;;;;;;;9.02;2.35;;;;;;;;;;4958494;28;20058;-80
2022/06/12 06:58:51;;;;;;;8.73;2.15;;;;;;;;;;4962465;28;20057;-79
2022/06/12 07:01:17;;;;;;;9.95;2.20;;;;;;;;;;4959653;28;20055;-79
2022/06/12 07:03:44;;;;;;;11.18;2.22;;;;;;;;;;4956951;28;20047;-79
2022/06/12 07:06:12;;;;;;;5.32;2.10;;;;;;;;;;4955825;28;20051;-80
2022/06/12 07:08:38;;;;;;;5.65;1.77;;;;;;;;;;4960205;28;20065;-76
2022/06/12 07:11:04;;;;;;;7.03;1.90;;;;;;;;;;4959300;28;20058;-76
2022/06/12 07:13:30;;;;;;;8.05;2.00;;;;;;;;;;4963729;28;20086;-81
2022/06/12 07:15:56;;;;;;;5.28;1.75;;;;;;;;;;4959574;28;20058;-79
2022/06/12 07:18:22;;;;;;;7.10;1.80;;;;;;;;;;4960908;28;20131;-77
2022/06/12 07:21:01;;;;;;;8.98;2.00;;;;;;;;;;4960973;28;20051;-76
2022/06/12 07:23:28;;;;;;;10.35;2.30;;;;;;;;;;4959963;28;20046;-79
2022/06/12 07:26:04;;;;;;;8.55;2.00;;;;;;;;;;4962709;28;20082;-74
2022/06/12 07:28:30;;;;;;;4.85;1.70;;;;;;;;;;4961269;28;20046;-75
2022/06/12 07:30:57;;;;;;;10.88;2.13;;;;;;;;;;4961764;28;20073;-79
2022/06/12 07:33:24;;;;;;;12.35;1.98;;;;;;;;;;4961036;28;20118;-78
2022/06/12 07:35:50;;;;;;;10.60;2.38;;;;;;;;;;4970301;28;20471;-73
2022/06/12 07:38:20;;;;;;;8.13;2.20;;;;;;;;;;4963495;28;20101;-76
2022/06/12 07:40:51;;;;;;;6.00;1.80;;;;;;;;;;4964210;28;20051;-76
2022/06/12 07:43:17;;;;;;;10.30;1.80;;;;;;;;;;4961986;28;20054;-72
2022/06/12 07:45:43;;;;;;;10.60;1.70;;;;;;;;;;4958094;28;20053;-77
2022/06/12 07:48:10;;;;;;;4.20;1.70;;;;;;;;;;4961962;28;20055;-78
2022/06/12 07:50:38;;;;;;;9.15;2.47;;;;;;;;;;4962508;28;20504;-76
2022/06/12 07:53:05;;;;;;;5.90;2.00;;;;;;;;;;4963107;28;20046;-73
2022/06/12 07:55:30;;;;;;;8.02;2.38;;;;;;;;;;4956912;28;20053;-75
2022/06/12 07:57:56;;;;;;;6.75;1.67;;;;;;;;;;4961130;28;20055;-78
2022/06/12 08:00:23;;;;;;;7.78;2.17;;;;;;;;;;4963400;28;20049;-76
2022/06/12 08:02:49;;;;;;;6.53;1.83;;;;;;;;;;4951032;28;20047;-78
2022/06/12 08:05:18;;;;;;;8.70;1.90;;;;;;;;;;4954561;28;20118;-73
2022/06/12 08:07:43;;;;;;;8.90;1.60;;;;;;;;;;4957464;28;20504;-75
2022/06/12 08:10:12;;;;;;;8.15;2.10;;;;;;;;;;4961751;28;20141;-77
2022/06/12 08:12:40;;;;;;;14.90;2.28;;;;;;;;;;4947725;28;20535;-74
2022/06/12 08:15:10;;;;;;;6.72;1.92;;;;;;;;;;4955950;28;20509;-74
2022/06/12 08:17:35;;;;;;;14.48;1.60;;;;;;;;;;4960822;28;20050;-69
2022/06/12 08:22:47;;;;;;;8.45;1.80;;;;;;;;;;4962392;28;20127;-70
2022/06/12 08:25:13;;;;;;;7.20;1.65;;;;;;;;;;4960105;28;20512;-72
2022/06/12 08:27:39;;;;;;;8.48;2.22;;;;;;;;;;4965771;28;20448;-75
2022/06/12 08:30:07;;;;;;;10.75;3.35;;;;;;;;;;4964077;28;20050;-70
2022/06/12 08:32:35;;;;;;;28.65;13.63;;;;;;;;;;4961290;28;20094;-73
2022/06/12 08:35:07;;;;;;;19.83;7.85;;;;;;;;;;4959903;28;20539;-74
2022/06/12 08:37:36;;;;;;;9.52;1.83;;;;;;;;;;4961453;28;20371;-74
2022/06/12 08:40:08;;;;;;;10.68;2.15;;;;;;;;;;4962894;28;20114;-72
2022/06/12 08:42:51;;;;;;;8.10;2.42;;;;;;;;;;4961842;28;20089;-74
2022/06/12 08:45:21;;;;;;;13.95;3.50;;;;;;;;;;4954208;28;20465;-73
2022/06/12 08:47:54;;;;;;;6.35;1.83;;;;;;;;;;4962712;28;20063;-76
2022/06/12 08:51:03;;;;;;;6.68;1.52;;;;;;;;;;4962280;28;20154;-75
2022/06/12 08:53:31;;;;;;;7.30;3.05;;;;;;;;;;4960959;28;20082;-74
2022/06/12 08:56:09;;;;;;;5.22;1.70;;;;;;;;;;4962855;28;20039;-73
2022/06/12 08:58:58;;;;;;;9.13;2.60;;;;;;;;;;4961991;28;20098;-73
2022/06/12 09:01:24;;;;;;;7.93;1.70;;;;;;;;;;4963379;28;20046;-72
2022/06/12 09:03:53;;;;;;;6.40;1.67;;;;;;;;;;4963788;28;20057;-73
2022/06/12 09:06:47;;;;;;;9.10;1.90;;;;;;;;;;4962482;28;20054;-72
2022/06/12 09:09:18;;;;;;;7.22;1.83;;;;;;;;;;4958064;28;20073;-73
2022/06/12 09:11:49;;;;;;;7.70;2.10;;;;;;;;;;4963688;28;20330;-75
2022/06/12 09:15:07;;;;;;;9.93;2.85;;;;;;;;;;4961893;28;20062;-73
2022/06/12 09:18:10;;;;;;;7.70;2.20;;;;;;;;;;4933572;28;20161;-70
2022/06/12 09:20:42;;;;;;;7.28;2.28;;;;;;;;;;4960207;28;20504;-74
2022/06/12 09:23:32;;;;;;;5.05;1.98;;;;;;;;;;4960251;28;20477;-76
2022/06/12 09:26:24;;;;;;;9.20;2.20;;;;;;;;;;4957043;28;20054;-77
2022/06/12 09:29:17;;;;;;;4.35;1.83;;;;;;;;;;4960929;28;20438;-76
2022/06/12 09:32:01;;;;;;;5.15;1.70;;;;;;;;;;4958399;28;20077;-72
2022/06/12 09:34:55;;;;;;;5.43;1.92;;;;;;;;;;4960383;28;20421;-70
2022/06/12 09:40:49;;;;;;;13.82;3.13;;;;;;;;;;4958455;28;20088;-70
2022/06/12 09:43:47;;;;;;;34.90;7.22;;;;;;;;;;4940624;28;20069;-68
2022/06/12 09:46:15;;;;;;;13.68;3.50;;;;;;;;;;4957098;28;20066;-70
2022/06/12 09:49:22;;;;;;;12.93;3.30;;;;;;;;;;4961443;28;20074;-69
2022/06/12 09:51:56;;;;;;;10.18;2.67;;;;;;;;;;4958589;28;20238;-72
2022/06/12 09:54:55;;;;;;;6.85;2.20;;;;;;;;;;4959566;28;20446;-71
2022/06/12 09:57:39;;;;;;;8.95;2.33;;;;;;;;;;4946766;28;20051;-82
2022/06/12 10:00:16;;;;;;;6.88;2.20;;;;;;;;;;4959818;28;20563;-70
2022/06/12 10:02:57;;;;;;;6.40;2.17;;;;;;;;;;4961929;28;20362;-80
2022/06/12 10:05:49;;;;;;;6.97;2.28;;;;;;;;;;4963722;28;20054;-80
2022/06/12 10:08:21;;;;;;;6.15;2.28;;;;;;;;;;4963972;28;20051;-80
2022/06/12 10:10:54;;;;;;;6.68;2.22;;;;;;;;;;4963700;28;20067;-79
2022/06/12 10:13:24;;;;;;;;;;;;;;;;;;4964550;28;20374;-75
2022/06/12 10:15:59;;;;;;;6.45;2.25;;;;;;;;;;4961165;28;20013;-78
2022/06/12 10:18:36;;;;;;;5.93;2.33;;;;;;;;;;4962976;28;20051;-76
2022/06/12 10:21:10;;;;;;;9.95;2.33;;;;;;;;;;4959338;28;20046;-79
2022/06/12 10:23:36;;;;;;;6.80;2.17;;;;;;;;;;4965856;28;20050;-76
2022/06/12 10:26:14;;;;;;;7.75;2.10;;;;;;;;;;4961482;28;20055;-78
2022/06/12 10:28:41;;;;;;;7.93;2.10;;;;;;;;;;4962916;28;20062;-78
2022/06/12 10:31:10;;;;;;;6.60;2.20;;;;;;;;;;4963394;28;20074;-77
2022/06/12 10:33:42;;;;;;;5.68;1.92;;;;;;;;;;4963730;28;20078;-77
2022/06/12 10:36:20;;;;;;;7.82;1.90;;;;;;;;;;4961588;28;20062;-78
2022/06/12 10:38:45;;;;;;;4.50;1.50;;;;;;;;;;4963401;28;20090;-79
2022/06/12 10:41:27;;;;;;;5.93;1.90;;;;;;;;;;4961648;28;20051;-75
2022/06/12 10:43:56;;;;;;;6.20;2.05;;;;;;;;;;4964527;28;20054;-77
2022/06/12 10:46:31;;;;;;;5.88;1.67;;;;;;;;;;4961883;28;20055;-78
2022/06/12 10:49:04;;;;;;;6.32;1.73;;;;;;;;;;4964572;28;20118;-79
2022/06/12 10:51:36;;;;;;;6.70;1.70;;;;;;;;;;4960972;28;20055;-77
2022/06/12 10:54:18;;;;;;;7.05;1.90;;;;;;;;;;4963492;28;20089;-77
2022/06/12 10:57:07;;;;;;;8.85;2.20;;;;;;;;;;4962472;28;20082;-77
2022/06/12 10:59:40;;;;;;;5.60;2.00;;;;;;;;;;4962194;28;20058;-80
2022/06/12 11:02:06;;;;;;;5.77;1.67;;;;;;;;;;4968046;28;20051;-77
2022/06/12 11:04:41;;;;;;;15.00;2.20;;;;;;;;;;4964318;28;20311;-81
2022/06/12 11:07:09;;;;;;;5.53;1.88;;;;;;;;;;4966811;28;20050;-78
2022/06/12 11:09:41;;;;;;;7.38;2.28;;;;;;;;;;4967036;28;20046;-76
2022/06/12 11:12:25;;;;;;;6.35;1.90;;;;;;;;;;4961589;28;20039;-79
2022/06/12 11:15:03;;;;;;;9.38;2.33;;;;;;;;;;4965351;28;20153;-77
2022/06/12 11:17:54;;;;;;;7.57;2.47;;;;;;;;;;4963880;28;20567;-78
2022/06/12 11:20:54;;;;;;;5.65;1.90;;;;;;;;;;4962651;28;20065;-76
2022/06/12 11:23:47;;;;;;;5.80;1.60;;;;;;;;;;4963603;28;20978;-80
2022/06/12 11:26:46;;;;;;;7.45;1.95;;;;;;;;;;4960146;28;20071;-79
2022/06/12 11:29:21;;;;;;;6.45;1.98;;;;;;;;;;4959476;28;20439;-80
2022/06/12 11:32:34;;;;;;;6.32;2.15;;;;;;;;;;4964068;28;20050;-78
2022/06/12 11:35:31;;;;;;;7.22;3.25;;;;;;;;;;4902031;29;20139;-77
2022/06/12 11:38:12;;;;;;;7.90;2.40;;;;;;;;;;4903714;29;20052;-79
2022/06/12 11:40:45;;;;;;;7.65;2.55;;;;;;;;;;4902799;29;20055;-78
2022/06/12 11:43:25;;;;;;;7.80;2.45;;;;;;;;;;4887113;29;20079;-77
2022/06/12 11:46:09;;;;;;;6.20;2.83;;;;;;;;;;4900040;29;20072;-78
2022/06/12 11:49:13;;;;;;;8.65;2.83;;;;;;;;;;4902804;29;20068;-82
2022/06/12 11:52:00;;;;;;;6.68;2.20;;;;;;;;;;4902421;29;20130;-79
2022/06/12 11:54:44;;;;;;;6.82;2.55;;;;;;;;;;4901324;29;20059;-74
2022/06/12 11:57:32;;;;;;;6.35;1.83;;;;;;;;;;4900804;29;20355;-79
2022/06/12 12:00:03;;;;;;;7.07;2.45;;;;;;;;;;4902641;29;20469;-76
2022/06/12 12:02:47;;;;;;;5.10;2.25;;;;;;;;;;4900135;29;20406;-80
2022/06/12 12:05:29;;;;;;;4.80;2.00;;;;;;;;;;4903643;29;20215;-80
2022/06/12 12:08:20;;;;;;;7.45;2.25;;;;;;;;;;4904668;29;20581;-79
2022/06/12 12:10:49;;;;;;;5.95;2.20;;;;;;;;;;4902655;29;20064;-79
2022/06/12 12:13:26;;;;;;;7.50;2.33;;;;;;;;;;4962048;28;20059;-77
2022/06/12 12:15:59;;;;;;;8.35;2.65;;;;;;;;;;4962531;28;20085;-78
2022/06/12 12:18:30;;;;;;;5.65;2.22;;;;;;;;;;4962791;28;20145;-77
2022/06/12 12:20:58;;;;;;;7.38;2.30;;;;;;;;;;4963870;28;20132;-79
2022/06/12 12:23:27;;;;;;;6.72;2.10;;;;;;;;;;4963498;28;20050;-81
2022/06/12 12:26:01;;;;;;;4.72;1.75;;;;;;;;;;4961136;28;20505;-79
2022/06/12 12:28:35;;;;;;;4.82;1.67;;;;;;;;;;4964518;28;20054;-79
2022/06/12 12:31:04;;;;;;;4.85;2.08;;;;;;;;;;4961750;28;20094;-80
2022/06/12 12:33:32;;;;;;;7.93;2.15;;;;;;;;;;4964199;28;20043;-78
2022/06/12 12:41:45;;;;;;;5.32;2.03;;;;;;;;;;4963603;28;20066;-78
2022/06/12 12:44:15;;;;;;;4.65;1.45;;;;;;;;;;4962841;28;20627;-81
2022/06/12 12:46:48;;;;;;;3.63;1.50;;;;;;;;;;4966699;28;20075;-78
2022/06/12 12:49:27;;;;;;;5.03;1.70;;;;;;;;;;4967316;28;20441;-80
2022/06/12 12:52:11;;;;;;;4.13;1.50;;;;;;;;;;4966859;28;20101;-79
2022/06/12 12:54:46;;;;;;;7.47;1.70;;;;;;;;;;4961721;28;20121;-79
2022/06/12 12:57:15;;;;;;;6.63;1.70;;;;;;;;;;4962373;28;20078;-80
2022/06/12 12:59:52;;;;;;;6.97;1.70;;;;;;;;;;4963118;28;20038;-82
2022/06/12 13:02:24;;;;;;;4.88;1.55;;;;;;;;;;4962392;28;20103;-82
2022/06/12 13:04:55;;;;;;;5.97;2.30;;;;;;;;;;4962013;28;20054;-82
2022/06/12 13:07:48;;;;;;;3.42;1.60;;;;;;;;;;4962888;28;20054;-76
2022/06/12 13:10:22;;;;;;;6.53;1.80;;;;;;;;;;4966005;28;20062;-76
2022/06/12 13:13:34;;;;;;;5.95;1.70;;;;;;;;;;4966001;28;20593;-80
2022/06/12 13:16:09;;;;;;;4.90;1.90;;;;;;;;;;4964493;28;20078;-79
2022/06/12 13:18:52;;;;;;;3.58;1.52;;;;;;;;;;4965112;28;20059;-77
2022/06/12 13:21:30;;;;;;;5.13;1.63;;;;;;;;;;4963385;28;20054;-79
2022/06/12 13:24:11;;;;;;;4.55;1.70;;;;;;;;;;4966426;28;20427;-75
2022/06/12 13:26:41;;;;;;;4.43;1.50;;;;;;;;;;4963903;28;20066;-78
2022/06/12 13:29:20;;;;;;;5.95;1.48;;;;;;;;;;4963775;28;20077;-79
2022/06/12 13:32:05;;;;;;;6.35;1.75;;;;;;;;;;4965524;28;20062;-78
2022/06/12 13:34:31;;;;;;;3.95;1.25;;;;;;;;;;4963724;28;20038;-79
2022/06/12 13:36:59;;;;;;;5.95;1.38;;;;;;;;;;4964631;28;20361;-79
2022/06/12 13:39:35;;;;;;;6.95;1.58;;;;;;;;;;4965954;28;20059;-77
2022/06/12 13:42:03;;;;;;;6.97;1.92;;;;;;;;;;4962418;28;20124;-78
2022/06/12 13:44:39;;;;;;;9.25;2.03;;;;;;;;;;4964326;28;20472;-79
2022/06/12 13:47:22;;;;;;;5.15;1.40;;;;;;;;;;4963837;28;20059;-78
2022/06/12 13:49:56;;;;;;;4.85;1.50;;;;;;;;;;4967389;28;20050;-79
2022/06/12 13:52:41;;;;;;;6.47;1.80;;;;;;;;;;4965787;28;20890;-77
2022/06/12 13:55:19;;;;;;;5.80;1.67;;;;;;;;;;4962574;28;20072;-76
2022/06/12 13:57:45;;;;;;;4.70;1.40;;;;;;;;;;4967658;28;20054;-77
2022/06/12 14:00:34;;;;;;;4.65;1.60;;;;;;;;;;4969034;28;20077;-77
2022/06/12 14:03:01;;;;;;;4.25;1.38;;;;;;;;;;4968367;28;20047;-79
2022/06/12 14:05:31;;;;;;;2.85;1.30;;;;;;;;;;4964040;28;20534;-78
2022/06/12 14:08:02;;;;;;;4.10;1.48;;;;;;;;;;4964313;28;20043;-76
2022/06/12 14:10:40;;;;;;;3.33;1.42;;;;;;;;;;4965208;28;20108;-78
2022/06/12 14:13:16;;;;;;;3.95;1.08;;;;;;;;;;4964750;28;20121;-77
2022/06/12 14:15:43;;;;;;;7.32;1.30;;;;;;;;;;4963164;28;20059;-79
2022/06/12 14:18:24;;;;;;;2.97;1.27;;;;;;;;;;4965248;28;20089;-80
2022/06/12 14:21:17;;;;;;;3.03;1.27;;;;;;;;;;4963399;28;20061;-76
2022/06/12 14:23:51;;;;;;;3.60;1.30;;;;;;;;;;4966318;28;20070;-77
2022/06/12 14:26:27;;;;;;;4.78;1.40;;;;;;;;;;4962266;28;20058;-79
2022/06/12 14:28:53;;;;;;;4.75;1.25;;;;;;;;;;4964642;28;20072;-78
2022/06/12 14:31:29;;;;;;;6.28;1.65;;;;;;;;;;4963400;28;20479;-78
2022/06/12 14:34:03;;;;;;;3.97;1.60;;;;;;;;;;4964291;28;20061;-76
2022/06/12 14:36:48;;;;;;;4.75;1.30;;;;;;;;;;4962419;28;20145;-77
2022/06/12 14:39:35;;;;;;;3.92;1.40;;;;;;;;;;4959695;28;20074;-80
2022/06/12 14:42:02;;;;;;;2.92;1.05;;;;;;;;;;4962294;28;20076;-75
2022/06/12 14:44:29;;;;;;;3.95;1.27;;;;;;;;;;4963240;28;20109;-78
2022/06/12 14:47:05;;;;;;;6.28;1.50;;;;;;;;;;4962993;28;20062;-77
2022/06/12 14:49:31;;;;;;;4.63;2.30;;;;;;;;;;4963316;28;20055;-78
2022/06/12 14:51:57;;;;;;;4.03;1.33;;;;;;;;;;4964168;28;20441;-78
2022/06/12 14:54:23;;;;;;;5.82;1.30;;;;;;;;;;4963142;28;20051;-78
2022/06/12 14:56:49;;;;;;;6.78;1.20;;;;;;;;;;4961938;28;20548;-78
2022/06/12 14:59:24;;;;;;;4.07;1.08;;;;;;;;;;4965046;28;20161;-79
2022/06/12 15:01:51;;;;;;;5.53;1.52;;;;;;;;;;4965464;28;20134;-80
2022/06/12 15:04:17;;;;;;;3.03;1.40;;;;;;;;;;4963281;28;20051;-81
2022/06/12 15:06:43;;;;;;;3.67;1.13;;;;;;;;;;4964530;28;20046;-79
2022/06/12 15:09:10;;;;;;;3.75;1.20;;;;;;;;;;4962614;28;20535;-78
2022/06/12 15:11:37;;;;;;;5.50;1.30;;;;;;;;;;4964374;28;20050;-79
2022/06/12 15:14:04;;;;;;;2.60;1.15;;;;;;;;;;4961696;28;20055;-78
2022/06/12 15:16:31;;;;;;;4.25;1.52;;;;;;;;;;4963240;28;20054;-76
2022/06/12 15:18:58;;;;;;;5.18;1.27;;;;;;;;;;4964693;28;20051;-77
2022/06/12 15:21:34;;;;;;;2.72;1.20;;;;;;;;;;4964238;28;20073;-76
2022/06/12 15:24:02;;;;;;;5.90;1.42;;;;;;;;;;4964060;28;20170;-76
2022/06/12 15:31:58;;;;;;;3.80;1.20;;;;;;;;;;4962764;28;20053;-77
2022/06/12 15:34:26;;;;;;;4.72;1.20;;;;;;;;;;4963361;28;20453;-79
2022/06/12 15:36:51;;;;;;;3.13;1.33;;;;;;;;;;4965469;28;20097;-76
2022/06/12 15:39:17;;;;;;;4.05;1.27;;;;;;;;;;4963608;28;20059;-76
2022/06/12 15:41:44;;;;;;;3.70;1.02;;;;;;;;;;4962767;28;20478;-78
2022/06/12 15:44:11;;;;;;;3.53;1.10;;;;;;;;;;4962641;28;20086;-77
2022/06/12 15:46:37;;;;;;;5.72;1.27;;;;;;;;;;4963227;28;20411;-79
2022/06/12 15:49:03;;;;;;;4.00;1.30;;;;;;;;;;4959910;28;20046;-75
2022/06/12 15:51:29;;;;;;;8.70;1.45;;;;;;;;;;4961615;28;20101;-78